Time;durP1;ratioP1;P1;durP2;ratioP2;P2;SDS_P1;SDS_P2;PMS_P1;PMS_P2;Temp;Humidity;BMP_temperature;BMP_pressure;BME280_temperature;BME280_humidity;BME280_pressure;Samples;Min_cycle;Max_cycle;Signal;HPM_P1;HPM_P2
2022/06/22 00:00:36;;;;;;;1.80;1.60;;;;;24.50;100218.00;;;;2032125;29;20689;-70
2022/06/22 00:01:58;;;;;;;2.15;1.58;;;;;24.50;100216.00;;;;2033448;29;20284;-70
2022/06/22 00:02:58;;;;;;;2.00;1.50;;;;;24.50;100196.00;;;;2041087;28;20236;-69
2022/06/22 00:04:00;;;;;;;1.77;1.40;;;;;24.50;100218.00;;;;2028280;29;20218;-70
2022/06/22 00:05:03;;;;;;;2.42;1.60;;;;;24.50;100207.00;;;;2035970;29;20697;-70
2022/06/22 00:06:04;;;;;;;2.03;1.60;;;;;24.50;100206.00;;;;2043605;28;20308;-70
2022/06/22 00:07:11;;;;;;;2.23;1.70;;;;;24.50;100170.00;;;;2043622;28;20212;-70
2022/06/22 00:08:14;;;;;;;2.22;1.35;;;;;24.50;100209.00;;;;2043025;28;20222;-70
2022/06/22 00:09:35;;;;;;;2.25;1.67;;;;;24.50;100204.00;;;;2043695;28;20239;-70
2022/06/22 00:10:40;;;;;;;2.00;1.40;;;;;24.50;100210.00;;;;2035668;29;20216;-69
2022/06/22 00:11:43;;;;;;;2.10;1.35;;;;;24.50;100209.00;;;;2030966;28;20225;-70
2022/06/22 00:12:47;;;;;;;3.90;1.60;;;;;24.50;100205.00;;;;2037037;28;20222;-70
2022/06/22 00:13:49;;;;;;;2.78;1.30;;;;;24.50;100208.00;;;;2036872;29;20213;-70
2022/06/22 00:14:51;;;;;;;2.00;1.30;;;;;24.40;100213.00;;;;2035759;28;20220;-69
2022/06/22 00:15:53;;;;;;;7.05;1.80;;;;;24.50;100209.00;;;;2043693;29;20216;-70
2022/06/22 00:16:54;;;;;;;2.28;1.30;;;;;24.50;100171.00;;;;2039858;29;20256;-70
2022/06/22 00:17:54;;;;;;;2.77;1.70;;;;;24.50;100212.00;;;;2039428;29;20684;-69
2022/06/22 00:18:55;;;;;;;2.00;1.23;;;;;24.50;100208.00;;;;2027785;29;20457;-70
2022/06/22 00:20:04;;;;;;;2.30;1.60;;;;;24.50;100183.00;;;;2027647;29;20244;-70
2022/06/22 00:21:15;;;;;;;1.75;1.20;;;;;24.50;100214.00;;;;2029382;29;20225;-70
2022/06/22 00:22:26;;;;;;;2.05;1.40;;;;;24.50;100219.00;;;;2032032;28;20214;-69
2022/06/22 00:23:30;;;;;;;2.20;1.60;;;;;24.50;100222.00;;;;2043062;28;20251;-69
2022/06/22 00:24:34;;;;;;;2.33;1.40;;;;;24.40;100215.00;;;;2043945;28;20225;-70
2022/06/22 00:25:36;;;;;;;3.63;1.60;;;;;24.40;100233.00;;;;2041180;28;20294;-70
2022/06/22 00:26:36;;;;;;;1.70;1.33;;;;;24.50;100218.00;;;;2044270;28;20600;-70
2022/06/22 00:27:37;;;;;;;2.60;1.27;;;;;24.50;100189.00;;;;2031519;29;20217;-70
2022/06/22 00:28:53;;;;;;;1.67;1.13;;;;;24.40;100219.00;;;;2032076;29;20228;-70
2022/06/22 00:30:11;;;;;;;3.00;1.60;;;;;24.50;100219.00;;;;2043546;28;20236;-70
2022/06/22 00:31:26;;;;;;;2.33;1.55;;;;;24.40;100179.00;;;;2043843;28;20274;-69
2022/06/22 00:32:27;;;;;;;4.28;1.65;;;;;24.40;100207.00;;;;2043451;28;20727;-70
2022/06/22 00:33:28;;;;;;;2.42;1.40;;;;;24.50;100215.00;;;;2043477;28;20220;-72
2022/06/22 00:34:33;;;;;;;1.73;1.37;;;;;24.40;100212.00;;;;2042528;28;20212;-72
2022/06/22 00:35:45;;;;;;;1.80;1.30;;;;;24.40;100201.00;;;;2043526;28;20677;-69
2022/06/22 00:36:46;;;;;;;3.45;1.73;;;;;24.40;100202.00;;;;2043376;28;20308;-72
2022/06/22 00:37:47;;;;;;;4.47;1.92;;;;;24.40;100197.00;;;;2043946;28;20215;-70
2022/06/22 00:38:47;;;;;;;6.73;1.60;;;;;24.40;100202.00;;;;2044650;28;20247;-71
2022/06/22 00:39:50;;;;;;;3.97;1.73;;;;;24.40;100194.00;;;;2044435;28;20212;-70
2022/06/22 00:40:54;;;;;;;4.43;1.50;;;;;24.40;100194.00;;;;2043975;28;20558;-71
2022/06/22 00:42:02;;;;;;;4.32;1.40;;;;;24.40;100188.00;;;;2036811;29;20221;-71
2022/06/22 00:43:02;;;;;;;4.13;1.88;;;;;24.40;100165.00;;;;2039600;29;20219;-71
2022/06/22 00:44:08;;;;;;;3.27;1.77;;;;;24.40;100182.00;;;;2046961;28;20239;-71
2022/06/22 00:45:11;;;;;;;2.38;1.40;;;;;24.40;100176.00;;;;2034811;29;20221;-71
2022/06/22 00:46:18;;;;;;;2.33;1.50;;;;;24.40;100185.00;;;;2036589;29;20216;-71
2022/06/22 00:47:29;;;;;;;3.60;1.77;;;;;24.40;100171.00;;;;2036831;28;20213;-71
2022/06/22 00:48:34;;;;;;;4.35;1.63;;;;;24.40;100161.00;;;;2036397;28;20217;-71
2022/06/22 00:49:34;;;;;;;3.17;1.45;;;;;24.40;100179.00;;;;2018326;29;21024;-70
2022/06/22 00:50:41;;;;;;;2.43;1.23;;;;;24.40;100174.00;;;;2030663;29;20221;-71
2022/06/22 00:51:41;;;;;;;4.43;1.80;;;;;24.40;100182.00;;;;2044054;28;20216;-70
2022/06/22 00:52:48;;;;;;;2.57;1.40;;;;;24.40;100180.00;;;;2035486;28;20225;-71
2022/06/22 00:53:55;;;;;;;3.00;1.60;;;;;24.40;100182.00;;;;2028333;29;20214;-69
2022/06/22 00:54:55;;;;;;;4.00;1.60;;;;;24.40;100197.00;;;;2022651;29;20210;-71
2022/06/22 00:55:58;;;;;;;4.23;1.70;;;;;24.40;100191.00;;;;2040126;29;20213;-71
2022/06/22 00:57:11;;;;;;;3.03;1.40;;;;;24.40;100154.00;;;;2036318;28;20303;-71
2022/06/22 00:58:21;;;;;;;3.50;1.88;;;;;24.40;100191.00;;;;2037387;28;20212;-71
2022/06/22 00:59:21;;;;;;;1.70;1.25;;;;;24.40;100181.00;;;;2043534;28;20209;-71
2022/06/22 01:00:22;;;;;;;5.67;1.60;;;;;24.40;100185.00;;;;2044238;28;20295;-71
2022/06/22 01:01:24;;;;;;;3.47;1.60;;;;;24.40;100181.00;;;;2035707;28;20209;-70
2022/06/22 01:02:52;;;;;;;3.15;1.92;;;;;24.40;100160.00;;;;2035705;28;20458;-71
2022/06/22 01:04:07;;;;;;;1.88;1.30;;;;;24.40;100184.00;;;;2039795;28;20224;-70
2022/06/22 01:05:31;;;;;;;4.30;1.60;;;;;24.40;100183.00;;;;2038264;29;20273;-71
2022/06/22 01:07:10;;;;;;;2.03;1.40;;;;;24.40;100176.00;;;;2036729;28;20222;-70
2022/06/22 01:08:22;;;;;;;2.08;1.20;;;;;24.40;100177.00;;;;2036584;28;20311;-70
2022/06/22 01:09:32;;;;;;;2.95;1.45;;;;;24.40;100172.00;;;;2037982;28;20700;-70
2022/06/22 01:10:56;;;;;;;3.00;1.58;;;;;24.40;100178.00;;;;2036383;29;20229;-70
2022/06/22 01:12:16;;;;;;;3.22;1.45;;;;;24.40;100169.00;;;;2042152;28;20220;-71
2022/06/22 01:13:25;;;;;;;1.73;1.48;;;;;24.40;100177.00;;;;2044163;28;20237;-70
2022/06/22 01:14:30;;;;;;;2.08;1.60;;;;;24.40;100176.00;;;;2038962;29;20279;-69
2022/06/22 01:15:36;;;;;;;2.05;1.40;;;;;24.40;100176.00;;;;2043604;28;20220;-70
2022/06/22 01:16:39;;;;;;;1.50;1.35;;;;;24.40;100169.00;;;;2037196;29;20209;-70
2022/06/22 01:18:02;;;;;;;2.50;1.77;;;;;24.40;100164.00;;;;2032344;29;20221;-70
2022/06/22 01:19:02;;;;;;;2.65;1.55;;;;;24.40;100164.00;;;;2037909;28;20676;-70
2022/06/22 01:20:20;;;;;;;1.67;1.30;;;;;24.30;100170.00;;;;2044247;28;20236;-69
2022/06/22 01:21:24;;;;;;;2.75;1.45;;;;;24.40;100168.00;;;;2036180;28;20736;-71
2022/06/22 01:22:54;;;;;;;3.55;1.40;;;;;24.30;100170.00;;;;2036394;28;20584;-70
2022/06/22 01:24:17;;;;;;;3.17;1.33;;;;;24.40;100164.00;;;;2043126;28;20244;-70
2022/06/22 01:25:45;;;;;;;3.65;1.67;;;;;24.30;100171.00;;;;2036024;29;20239;-70
2022/06/22 01:27:14;;;;;;;1.80;1.60;;;;;24.40;100152.00;;;;2043031;28;20271;-70
2022/06/22 01:28:14;;;;;;;1.95;1.30;;;;;24.30;100165.00;;;;2043234;28;20207;-70
2022/06/22 01:29:22;;;;;;;3.37;1.50;;;;;24.40;100174.00;;;;2042019;29;20216;-70
2022/06/22 01:30:44;;;;;;;1.95;1.50;;;;;24.40;100181.00;;;;2036130;29;20221;-69
2022/06/22 01:31:53;;;;;;;3.40;1.52;;;;;24.30;100181.00;;;;2033542;29;20220;-71
2022/06/22 01:32:55;;;;;;;2.53;1.30;;;;;24.30;100182.00;;;;2033409;29;20228;-70
2022/06/22 01:33:55;;;;;;;2.83;1.52;;;;;24.30;100180.00;;;;2029131;29;20214;-71
2022/06/22 01:34:57;;;;;;;2.97;1.37;;;;;24.30;100190.00;;;;2028770;29;20225;-71
2022/06/22 01:35:58;;;;;;;2.10;1.38;;;;;24.30;100185.00;;;;2038867;29;20272;-71
2022/06/22 01:37:02;;;;;;;3.03;1.60;;;;;24.30;100159.00;;;;2035847;28;20217;-71
2022/06/22 01:38:23;;;;;;;2.85;1.55;;;;;24.30;100186.00;;;;2036053;28;20445;-70
2022/06/22 01:39:25;;;;;;;1.80;1.42;;;;;24.30;100185.00;;;;2036720;28;20220;-71
2022/06/22 01:40:35;;;;;;;2.00;1.60;;;;;24.30;100177.00;;;;2044372;28;20216;-70
2022/06/22 01:41:49;;;;;;;2.08;1.25;;;;;24.30;100173.00;;;;2044306;28;20296;-71
2022/06/22 01:43:04;;;;;;;3.25;1.92;;;;;24.30;100169.00;;;;2039750;28;20340;-70
2022/06/22 01:44:23;;;;;;;2.58;1.50;;;;;24.30;100143.00;;;;2033397;29;20210;-71
2022/06/22 01:45:27;;;;;;;1.50;1.30;;;;;24.30;100156.00;;;;2035240;28;20221;-70
2022/06/22 01:46:47;;;;;;;2.58;1.30;;;;;24.30;100146.00;;;;2040774;28;20212;-70
2022/06/22 01:48:28;;;;;;;2.78;1.30;;;;;24.30;100148.00;;;;2043197;28;20295;-70
2022/06/22 01:49:31;;;;;;;2.72;1.88;;;;;24.30;100156.00;;;;2030964;29;20213;-70
2022/06/22 01:50:37;;;;;;;4.18;1.40;;;;;24.30;100159.00;;;;2012460;29;20259;-70
2022/06/22 01:51:41;;;;;;;2.10;1.15;;;;;24.30;100161.00;;;;2017459;29;20226;-70
2022/06/22 01:52:47;;;;;;;2.10;1.83;;;;;24.30;100169.00;;;;2035756;28;20209;-70
2022/06/22 01:53:50;;;;;;;2.17;1.48;;;;;24.30;100145.00;;;;2035871;29;20213;-71
2022/06/22 01:54:59;;;;;;;3.20;1.50;;;;;24.30;100142.00;;;;2034997;28;20217;-70
2022/06/22 01:56:21;;;;;;;2.58;1.40;;;;;24.30;100175.00;;;;2029788;29;20220;-70
2022/06/22 01:57:24;;;;;;;3.33;1.70;;;;;24.30;100165.00;;;;2035856;29;20226;-71
2022/06/22 01:58:35;;;;;;;1.88;1.40;;;;;24.30;100162.00;;;;2042595;28;20227;-69
2022/06/22 01:59:58;;;;;;;1.85;1.63;;;;;24.30;100162.00;;;;2034527;28;20249;-71
2022/06/22 02:01:02;;;;;;;1.95;1.40;;;;;24.30;100168.00;;;;2038313;28;20605;-70
2022/06/22 02:02:24;;;;;;;2.55;1.23;;;;;24.30;100163.00;;;;2045932;28;20281;-71
2022/06/22 02:03:39;;;;;;;2.22;1.25;;;;;24.30;100167.00;;;;2037918;28;20232;-71
2022/06/22 02:04:48;;;;;;;2.17;1.40;;;;;24.30;100159.00;;;;2034228;29;20224;-70
2022/06/22 02:07:44;;;;;;;1.63;1.38;;;;;24.30;100161.00;;;;2040278;29;20232;-70
2022/06/22 02:07:46;;;;;;;1.80;1.60;;;;;24.30;100161.00;;;;2041584;28;20712;-70
2022/06/22 02:08:46;;;;;;;1.83;1.42;;;;;24.30;100133.00;;;;2045651;28;20220;-71
2022/06/22 02:09:52;;;;;;;2.20;1.47;;;;;24.30;100163.00;;;;2034652;28;20221;-71
2022/06/22 02:11:01;;;;;;;1.80;1.40;;;;;24.30;100167.00;;;;2035248;28;20225;-70
2022/06/22 02:12:20;;;;;;;1.75;1.52;;;;;24.30;100167.00;;;;2030392;28;20259;-71
2022/06/22 02:13:40;;;;;;;1.45;1.33;;;;;24.30;100169.00;;;;2031977;29;20319;-71
2022/06/22 02:14:42;;;;;;;1.90;1.52;;;;;24.30;100173.00;;;;2038328;28;20211;-71
2022/06/22 02:15:56;;;;;;;1.63;1.00;;;;;24.30;100133.00;;;;2042499;29;20315;-71
2022/06/22 02:16:59;;;;;;;2.55;1.48;;;;;24.30;100163.00;;;;2035988;28;20224;-70
2022/06/22 02:17:59;;;;;;;2.97;1.40;;;;;24.30;100163.00;;;;2023229;29;20225;-71
2022/06/22 02:19:00;;;;;;;2.20;1.43;;;;;24.30;100161.00;;;;2015203;29;20723;-70
2022/06/22 02:20:23;;;;;;;1.90;1.23;;;;;24.30;100165.00;;;;2034950;29;20729;-70
2022/06/22 02:21:30;;;;;;;2.70;1.40;;;;;24.30;100158.00;;;;2036746;28;20219;-71
2022/06/22 02:22:30;;;;;;;2.72;1.48;;;;;24.30;100161.00;;;;2041732;28;20261;-70
2022/06/22 02:23:35;;;;;;;2.40;1.47;;;;;24.30;100153.00;;;;2041294;28;20233;-70
2022/06/22 02:24:44;;;;;;;2.35;1.40;;;;;24.30;100147.00;;;;2042973;28;20220;-70
2022/06/22 02:26:09;;;;;;;2.25;1.17;;;;;24.30;100153.00;;;;2043253;28;20223;-71
2022/06/22 02:27:13;;;;;;;1.92;1.40;;;;;24.30;100157.00;;;;2042135;28;21098;-70
2022/06/22 02:28:14;;;;;;;1.80;1.30;;;;;24.30;100158.00;;;;2043161;28;20417;-71
2022/06/22 02:29:15;;;;;;;2.17;1.50;;;;;24.30;100159.00;;;;2043857;28;20293;-70
2022/06/22 02:30:15;;;;;;;1.75;1.58;;;;;24.20;100167.00;;;;2035071;28;20561;-71
2022/06/22 02:31:17;;;;;;;1.77;1.37;;;;;24.30;100168.00;;;;2026074;29;20224;-71
2022/06/22 02:32:20;;;;;;;1.85;1.38;;;;;24.30;100170.00;;;;2042110;28;20689;-71
2022/06/22 02:33:20;;;;;;;2.22;1.70;;;;;24.30;100173.00;;;;2049807;28;20578;-70
2022/06/22 02:34:20;;;;;;;1.93;1.73;;;;;24.30;100084.00;;;;2042367;28;20217;-70
2022/06/22 02:35:21;;;;;;;3.50;1.80;;;;;24.30;100166.00;;;;2042885;28;20567;-70
2022/06/22 02:36:23;;;;;;;1.90;1.07;;;;;24.20;100170.00;;;;2043179;28;20601;-70
2022/06/22 02:37:26;;;;;;;3.47;1.70;;;;;24.20;100162.00;;;;2032311;29;20685;-70
2022/06/22 02:38:26;;;;;;;1.52;1.42;;;;;24.20;100166.00;;;;2026980;29;20769;-71
2022/06/22 02:39:27;;;;;;;2.40;1.73;;;;;24.20;100168.00;;;;2026698;29;20224;-71
2022/06/22 02:40:28;;;;;;;3.03;1.50;;;;;24.20;100168.00;;;;2034625;28;20284;-71
2022/06/22 02:44:30;;;;;;;2.95;1.60;;;;;24.20;100162.00;;;;2040839;28;20220;-70
2022/06/22 02:45:31;;;;;;;1.90;1.00;;;;;24.20;100160.00;;;;2036800;28;20225;-70
2022/06/22 02:46:35;;;;;;;3.13;1.38;;;;;24.20;100169.00;;;;2042484;28;20225;-70
2022/06/22 02:47:59;;;;;;;1.85;1.42;;;;;24.20;100161.00;;;;2044664;28;20240;-70
2022/06/22 02:49:10;;;;;;;1.85;1.20;;;;;24.20;100131.00;;;;2037676;29;20246;-70
2022/06/22 02:50:25;;;;;;;2.33;1.40;;;;;24.20;100119.00;;;;2031901;29;20646;-70
2022/06/22 02:51:27;;;;;;;2.40;1.52;;;;;24.20;100151.00;;;;2010473;29;20496;-71
2022/06/22 02:52:34;;;;;;;2.38;1.40;;;;;24.20;100140.00;;;;2028599;29;20312;-70
2022/06/22 02:53:36;;;;;;;2.60;1.40;;;;;24.20;100139.00;;;;2022404;28;20950;-69
2022/06/22 02:54:40;;;;;;;2.10;1.70;;;;;24.20;100139.00;;;;2027709;29;20324;-70
2022/06/22 02:55:40;;;;;;;2.20;1.30;;;;;24.20;100135.00;;;;2027323;29;20720;-71
2022/06/22 02:56:40;;;;;;;1.50;1.30;;;;;24.20;100129.00;;;;2026921;29;20225;-70
2022/06/22 02:57:53;;;;;;;1.90;1.50;;;;;24.20;100129.00;;;;2034411;28;20218;-70
2022/06/22 02:58:53;;;;;;;2.50;1.50;;;;;24.20;100135.00;;;;2042133;28;20231;-70
2022/06/22 02:59:53;;;;;;;1.50;1.40;;;;;24.20;100137.00;;;;2043305;28;20223;-70
2022/06/22 03:00:54;;;;;;;1.67;1.57;;;;;24.20;100127.00;;;;2043306;28;20254;-71
2022/06/22 03:01:54;;;;;;;1.87;1.40;;;;;24.20;100125.00;;;;2043119;28;20224;-71
2022/06/22 03:02:58;;;;;;;1.93;1.33;;;;;24.20;100119.00;;;;2034237;28;20749;-70
2022/06/22 03:04:00;;;;;;;2.47;1.45;;;;;24.20;100134.00;;;;2035693;29;20228;-70
2022/06/22 03:05:00;;;;;;;2.10;1.38;;;;;24.20;100124.00;;;;2034851;28;20221;-70
2022/06/22 03:06:01;;;;;;;1.20;1.10;;;;;24.20;100134.00;;;;2042483;28;20707;-70
2022/06/22 03:07:02;;;;;;;2.37;1.50;;;;;24.20;100130.00;;;;2041841;28;20787;-70
2022/06/22 03:08:02;;;;;;;1.67;1.17;;;;;24.20;100131.00;;;;2042048;28;20253;-70
2022/06/22 03:09:04;;;;;;;2.27;1.43;;;;;24.20;100127.00;;;;2042938;28;20213;-70
2022/06/22 03:10:05;;;;;;;2.35;1.50;;;;;24.20;100132.00;;;;2043234;28;20344;-70
2022/06/22 03:11:06;;;;;;;2.30;1.33;;;;;24.20;100140.00;;;;2042924;28;20213;-71
2022/06/22 03:12:07;;;;;;;2.10;1.20;;;;;24.20;100136.00;;;;2043070;28;20700;-70
2022/06/22 03:13:10;;;;;;;2.10;1.20;;;;;24.20;100143.00;;;;2042168;28;20221;-71
2022/06/22 03:14:26;;;;;;;1.92;1.67;;;;;24.20;100147.00;;;;2034008;29;20213;-70
2022/06/22 03:15:29;;;;;;;1.85;1.30;;;;;24.20;100133.00;;;;2024262;29;20686;-71
2022/06/22 03:16:34;;;;;;;1.83;1.52;;;;;24.20;100151.00;;;;2031695;29;20232;-70
2022/06/22 03:17:36;;;;;;;1.65;1.50;;;;;24.20;100149.00;;;;2039017;29;20261;-70
2022/06/22 03:18:39;;;;;;;1.60;1.20;;;;;24.20;100157.00;;;;2037321;28;20220;-70
2022/06/22 03:20:03;;;;;;;2.60;1.70;;;;;24.20;100167.00;;;;2043116;28;20225;-70
2022/06/22 03:21:05;;;;;;;1.95;1.50;;;;;24.10;100171.00;;;;2042630;28;20209;-70
2022/06/22 03:22:06;;;;;;;2.05;1.35;;;;;24.20;100170.00;;;;2042768;29;20220;-71
2022/06/22 03:23:41;;;;;;;2.00;1.30;;;;;24.10;100179.00;;;;2034258;28;20222;-71
2022/06/22 03:24:48;;;;;;;1.50;1.30;;;;;24.10;100180.00;;;;2041250;28;20579;-70
2022/06/22 03:26:15;;;;;;;1.58;1.10;;;;;24.10;100184.00;;;;2041655;28;20602;-70
2022/06/22 03:27:20;;;;;;;2.05;1.27;;;;;24.10;100184.00;;;;2038456;28;20217;-70
2022/06/22 03:28:32;;;;;;;1.77;1.65;;;;;24.20;100175.00;;;;2034908;29;20220;-71
2022/06/22 03:29:35;;;;;;;1.98;1.40;;;;;24.20;100185.00;;;;2038083;28;20213;-70
2022/06/22 03:30:41;;;;;;;1.60;1.35;;;;;24.20;100169.00;;;;2036165;29;20305;-70
2022/06/22 03:31:43;;;;;;;2.70;1.48;;;;;24.10;100142.00;;;;2024090;29;20301;-70
2022/06/22 03:32:54;;;;;;;1.70;1.40;;;;;24.10;100176.00;;;;2025144;29;20234;-71
2022/06/22 03:34:01;;;;;;;2.88;1.52;;;;;24.10;100169.00;;;;2037078;29;20244;-70
2022/06/22 03:35:51;;;;;;;1.50;1.40;;;;;24.10;100166.00;;;;2036611;29;20217;-70
2022/06/22 03:37:01;;;;;;;2.95;1.63;;;;;24.10;100161.00;;;;2033732;28;20232;-70
2022/06/22 03:38:09;;;;;;;2.00;1.50;;;;;24.10;100157.00;;;;2035107;29;20661;-71
2022/06/22 03:39:14;;;;;;;1.48;1.27;;;;;24.10;100152.00;;;;2036372;28;20660;-68
2022/06/22 03:40:27;;;;;;;3.38;1.40;;;;;24.10;100142.00;;;;2036533;28;20768;-71
2022/06/22 03:41:29;;;;;;;2.05;1.35;;;;;24.10;100147.00;;;;2037797;28;20609;-71
2022/06/22 03:42:39;;;;;;;1.80;1.42;;;;;24.10;100141.00;;;;2042893;28;20278;-71
2022/06/22 03:43:47;;;;;;;2.15;1.27;;;;;24.10;100146.00;;;;2036735;28;20736;-70
2022/06/22 03:44:54;;;;;;;1.67;1.35;;;;;24.10;100146.00;;;;2035470;29;20672;-71
2022/06/22 03:46:02;;;;;;;3.63;1.50;;;;;24.10;100141.00;;;;2036952;28;20233;-70
2022/06/22 03:47:07;;;;;;;1.92;1.52;;;;;24.10;100125.00;;;;2036427;29;20679;-71
2022/06/22 03:48:11;;;;;;;2.40;1.65;;;;;24.10;100144.00;;;;2036000;28;20288;-70
2022/06/22 03:49:36;;;;;;;2.65;1.60;;;;;24.10;100123.00;;;;2028552;29;20213;-69
2022/06/22 03:50:46;;;;;;;1.50;1.40;;;;;24.10;100135.00;;;;2034711;28;20637;-70
2022/06/22 03:51:53;;;;;;;2.45;1.50;;;;;24.10;100140.00;;;;2037362;28;20221;-70
2022/06/22 03:53:02;;;;;;;1.80;1.40;;;;;24.10;100129.00;;;;2036284;29;20213;-70
2022/06/22 03:54:09;;;;;;;1.67;1.58;;;;;24.10;100118.00;;;;2021067;29;20227;-70
2022/06/22 03:55:12;;;;;;;2.97;1.50;;;;;24.10;100131.00;;;;2024125;29;20222;-71
2022/06/22 03:56:14;;;;;;;2.55;1.80;;;;;24.10;100130.00;;;;2036603;29;20576;-68
2022/06/22 03:57:18;;;;;;;2.63;1.35;;;;;24.20;100128.00;;;;2035894;29;20240;-71
2022/06/22 03:58:20;;;;;;;1.95;1.30;;;;;24.10;100123.00;;;;2035545;29;20209;-71
2022/06/22 03:59:20;;;;;;;2.33;1.50;;;;;24.10;100128.00;;;;2028067;29;20206;-71
2022/06/22 04:00:21;;;;;;;1.80;1.40;;;;;24.10;100128.00;;;;2024493;29;20706;-71
2022/06/22 04:01:21;;;;;;;3.33;1.60;;;;;24.10;100123.00;;;;2039988;29;20205;-71
2022/06/22 04:02:23;;;;;;;1.30;1.20;;;;;24.10;100128.00;;;;2044487;28;20588;-70
2022/06/22 04:03:23;;;;;;;1.92;1.63;;;;;24.10;100127.00;;;;2036374;28;20603;-71
2022/06/22 04:04:24;;;;;;;1.73;1.37;;;;;24.10;100044.00;;;;2043971;28;20210;-71
2022/06/22 04:05:27;;;;;;;2.30;1.60;;;;;24.10;100120.00;;;;2043665;28;20557;-70
2022/06/22 04:06:48;;;;;;;2.33;1.58;;;;;24.10;100127.00;;;;2043524;28;20223;-70
2022/06/22 04:07:48;;;;;;;2.03;1.30;;;;;24.10;100112.00;;;;2042518;28;20303;-70
2022/06/22 04:08:50;;;;;;;2.40;1.70;;;;;24.10;100133.00;;;;2043606;28;20228;-71
2022/06/22 04:09:52;;;;;;;2.70;1.50;;;;;24.10;100125.00;;;;2036422;29;20619;-70
2022/06/22 04:11:24;;;;;;;2.95;1.95;;;;;24.10;100119.00;;;;2028750;29;20225;-70
2022/06/22 04:12:33;;;;;;;1.50;1.40;;;;;24.10;100121.00;;;;2041090;28;20216;-71
2022/06/22 04:13:39;;;;;;;2.13;1.45;;;;;24.10;100129.00;;;;2035585;29;21853;-70
2022/06/22 04:14:43;;;;;;;1.58;1.30;;;;;24.10;100118.00;;;;2036914;29;20731;-70
2022/06/22 04:15:51;;;;;;;1.77;1.60;;;;;24.10;100130.00;;;;2038955;29;20213;-71
2022/06/22 04:16:58;;;;;;;1.58;1.23;;;;;24.10;100130.00;;;;2014172;29;20231;-71
2022/06/22 04:18:00;;;;;;;1.92;1.60;;;;;24.10;100118.00;;;;2034037;29;20213;-70
2022/06/22 04:19:04;;;;;;;2.13;1.60;;;;;24.10;100120.00;;;;2036115;28;20241;-70
2022/06/22 04:20:14;;;;;;;3.17;1.92;;;;;24.10;100128.00;;;;2036945;28;20209;-70
2022/06/22 04:21:21;;;;;;;1.88;1.38;;;;;24.10;100122.00;;;;2037557;29;20301;-70
2022/06/22 04:22:22;;;;;;;2.58;1.65;;;;;24.10;100123.00;;;;2028750;29;20245;-71
2022/06/22 04:23:52;;;;;;;3.13;1.63;;;;;24.10;100131.00;;;;2035165;29;20735;-70
2022/06/22 04:24:55;;;;;;;2.38;1.30;;;;;24.10;100089.00;;;;2043647;28;20491;-70
2022/06/22 04:25:58;;;;;;;2.33;1.50;;;;;24.10;100119.00;;;;2035576;28;20577;-70
2022/06/22 04:27:24;;;;;;;2.10;1.50;;;;;24.10;100143.00;;;;2035996;28;20275;-70
2022/06/22 04:28:25;;;;;;;2.75;1.50;;;;;24.10;100137.00;;;;2035321;28;20208;-70
2022/06/22 04:29:40;;;;;;;1.83;1.33;;;;;24.10;100137.00;;;;2036194;28;20215;-70
2022/06/22 04:30:43;;;;;;;2.88;1.65;;;;;24.10;100141.00;;;;2037520;28;20458;-70
2022/06/22 04:31:51;;;;;;;2.63;1.58;;;;;24.10;100141.00;;;;2036508;28;20221;-69
2022/06/22 04:33:19;;;;;;;1.67;1.20;;;;;24.10;100143.00;;;;2035455;28;20684;-71
2022/06/22 04:34:36;;;;;;;2.78;1.85;;;;;24.10;100146.00;;;;2043313;28;20267;-70
2022/06/22 04:35:43;;;;;;;1.55;1.45;;;;;24.10;100152.00;;;;2035391;29;20736;-71
2022/06/22 04:36:47;;;;;;;2.63;1.70;;;;;24.10;100048.00;;;;2029653;29;20274;-71
2022/06/22 04:37:51;;;;;;;1.70;1.17;;;;;24.10;100154.00;;;;2035499;28;20213;-69
2022/06/22 04:38:58;;;;;;;2.95;1.30;;;;;24.10;100150.00;;;;2035898;29;20239;-71
2022/06/22 04:40:21;;;;;;;1.88;1.55;;;;;24.10;100141.00;;;;2036488;28;20225;-70
2022/06/22 04:41:26;;;;;;;2.08;1.42;;;;;24.10;100152.00;;;;2035540;28;20208;-70
2022/06/22 04:42:26;;;;;;;2.22;1.60;;;;;24.10;100152.00;;;;2043842;28;20272;-71
2022/06/22 04:43:27;;;;;;;2.97;1.83;;;;;24.10;100140.00;;;;2042854;28;20283;-70
2022/06/22 04:44:34;;;;;;;3.17;1.93;;;;;24.10;100149.00;;;;2035460;28;20219;-71
2022/06/22 04:45:38;;;;;;;2.17;1.48;;;;;24.10;100153.00;;;;2035914;28;20469;-71
2022/06/22 04:46:41;;;;;;;1.95;1.50;;;;;24.10;100141.00;;;;2035569;29;20225;-70
2022/06/22 04:47:41;;;;;;;3.53;1.80;;;;;24.10;100152.00;;;;2035014;28;20763;-70
2022/06/22 04:48:46;;;;;;;2.43;1.60;;;;;24.10;100148.00;;;;2035135;28;20217;-70
2022/06/22 04:49:46;;;;;;;2.58;1.65;;;;;24.10;100150.00;;;;2035313;28;20689;-70
2022/06/22 04:50:49;;;;;;;3.30;1.43;;;;;24.10;100146.00;;;;2041806;29;20221;-70
2022/06/22 04:52:02;;;;;;;2.17;1.60;;;;;24.10;100153.00;;;;2043174;28;20217;-69
2022/06/22 04:53:02;;;;;;;2.60;1.75;;;;;24.10;100150.00;;;;2043237;28;20564;-70
2022/06/22 04:54:02;;;;;;;3.00;2.00;;;;;24.10;100150.00;;;;2042833;28;20215;-70
2022/06/22 04:55:04;;;;;;;2.73;1.80;;;;;24.10;100141.00;;;;2042758;28;20243;-70
2022/06/22 04:56:09;;;;;;;1.60;1.50;;;;;24.10;100162.00;;;;2042903;28;20220;-70
2022/06/22 04:57:25;;;;;;;1.85;1.60;;;;;24.10;100156.00;;;;2037089;29;20308;-70
2022/06/22 04:58:32;;;;;;;2.85;1.63;;;;;24.10;100155.00;;;;2029266;29;20225;-71
2022/06/22 04:59:33;;;;;;;2.22;1.70;;;;;24.10;100166.00;;;;2036462;29;20613;-70
2022/06/22 05:00:34;;;;;;;1.80;1.33;;;;;24.10;100164.00;;;;2043052;28;20221;-71
2022/06/22 05:01:39;;;;;;;2.63;1.57;;;;;24.10;100171.00;;;;2043669;28;20245;-70
2022/06/22 05:02:42;;;;;;;2.22;1.70;;;;;24.10;100165.00;;;;2044086;28;20461;-70
2022/06/22 05:03:42;;;;;;;1.70;1.48;;;;;24.10;100163.00;;;;2043834;28;20244;-70
2022/06/22 05:04:44;;;;;;;2.57;1.73;;;;;24.10;100160.00;;;;2044118;28;20227;-70
2022/06/22 05:05:45;;;;;;;2.55;1.77;;;;;24.10;100172.00;;;;2042954;28;20315;-70
2022/06/22 05:07:06;;;;;;;2.00;1.73;;;;;24.10;100179.00;;;;2043133;28;20617;-70
2022/06/22 05:08:15;;;;;;;2.70;1.60;;;;;24.10;100171.00;;;;2044940;28;20212;-70
2022/06/22 05:09:20;;;;;;;3.88;1.88;;;;;24.10;100176.00;;;;2036088;29;20225;-71
2022/06/22 05:10:30;;;;;;;2.67;1.73;;;;;24.10;100173.00;;;;2035822;29;20716;-70
2022/06/22 05:11:44;;;;;;;1.83;1.50;;;;;24.10;100176.00;;;;2043655;28;20308;-70
2022/06/22 05:12:47;;;;;;;3.22;2.00;;;;;24.10;100177.00;;;;2044490;28;20222;-71
2022/06/22 05:13:48;;;;;;;2.40;1.80;;;;;24.10;100179.00;;;;2043567;28;20238;-70
2022/06/22 05:14:49;;;;;;;2.63;1.70;;;;;24.10;100188.00;;;;2035157;28;20227;-70
2022/06/22 05:15:51;;;;;;;2.17;1.23;;;;;24.10;100185.00;;;;2035233;28;20431;-70
2022/06/22 05:17:03;;;;;;;2.72;1.50;;;;;24.10;100189.00;;;;2035484;28;20300;-70
2022/06/22 05:18:05;;;;;;;4.55;1.95;;;;;24.10;100196.00;;;;2032857;29;20224;-71
2022/06/22 05:19:05;;;;;;;2.28;1.77;;;;;24.10;100208.00;;;;2028277;29;20273;-70
2022/06/22 05:20:33;;;;;;;2.83;2.13;;;;;24.10;100197.00;;;;2042792;28;20209;-71
2022/06/22 05:21:41;;;;;;;1.80;1.45;;;;;24.10;100195.00;;;;2043307;28;20317;-71
2022/06/22 05:22:42;;;;;;;2.90;1.70;;;;;24.10;100192.00;;;;2043484;28;20659;-71
2022/06/22 05:23:43;;;;;;;3.70;1.70;;;;;24.10;100196.00;;;;2043837;28;20236;-70
2022/06/22 05:24:52;;;;;;;2.30;1.67;;;;;24.10;100191.00;;;;2042039;28;20236;-70
2022/06/22 05:25:52;;;;;;;2.78;2.03;;;;;24.10;100179.00;;;;2036568;28;20276;-70
2022/06/22 05:26:54;;;;;;;2.60;1.90;;;;;24.10;100196.00;;;;2035075;29;20736;-70
2022/06/22 05:28:02;;;;;;;2.47;1.90;;;;;24.10;100184.00;;;;2029325;28;20227;-69
2022/06/22 05:29:06;;;;;;;5.60;2.10;;;;;24.10;100205.00;;;;2043519;28;20236;-73
2022/06/22 05:30:07;;;;;;;3.92;2.00;;;;;24.10;100188.00;;;;2036404;29;20225;-82
2022/06/22 05:31:09;;;;;;;5.20;2.20;;;;;24.10;100210.00;;;;2027828;29;20297;-74
2022/06/22 05:32:18;;;;;;;4.80;1.73;;;;;24.10;100213.00;;;;2035786;28;20216;-75
2022/06/22 05:33:20;;;;;;;5.22;2.10;;;;;24.20;100207.00;;;;2042781;28;20671;-77
2022/06/22 05:34:28;;;;;;;3.72;1.80;;;;;24.20;100194.00;;;;2035066;28;20249;-74
2022/06/22 05:35:34;;;;;;;3.15;1.83;;;;;24.20;100193.00;;;;2038520;28;20217;-75
2022/06/22 05:36:38;;;;;;;4.05;2.08;;;;;24.20;100173.00;;;;2036303;28;20218;-75